createdAt,value
2023-01-15T00:00:27.208Z,12.01
2023-01-15T00:01:27.301Z,12.09
2023-01-15T00:02:27.257Z,12.05
2023-01-15T00:03:27.225Z,12.27
2023-01-15T00:04:27.171Z,12.26
2023-01-15T00:05:27.155Z,12.24
2023-01-15T00:06:27.133Z,12.08
2023-01-15T00:07:27.172Z,12.06
2023-01-15T00:08:27.119Z,12.06
2023-01-15T00:09:27.121Z,12.09
2023-01-15T00:10:27.104Z,12.02
2023-01-15T00:11:27.098Z,12.06
2023-01-15T00:12:27.189Z,12.08
2023-01-15T00:13:27.060Z,12.15
2023-01-15T00:14:27.050Z,12.23
2023-01-15T00:15:27.058Z,12.33
2023-01-15T00:16:27.020Z,12.13
2023-01-15T00:17:27.042Z,12.05
2023-01-15T00:18:27.044Z,12.02
2023-01-15T00:19:27.015Z,12.08
2023-01-15T00:20:26.994Z,12.05
2023-01-15T00:21:26.993Z,12.21
2023-01-15T00:22:26.946Z,12.24
2023-01-15T00:23:26.949Z,12.31
2023-01-15T00:24:26.985Z,12.39
2023-01-15T00:25:26.932Z,12.46
2023-01-15T00:26:26.911Z,12.45
2023-01-15T00:27:26.910Z,12.46
2023-01-15T00:28:26.893Z,12.60
2023-01-15T00:29:26.905Z,12.64
2023-01-15T00:30:26.863Z,12.33
2023-01-15T00:31:26.920Z,12.56
2023-01-15T00:32:26.842Z,12.46
2023-01-15T00:33:26.828Z,12.26
2023-01-15T00:34:26.821Z,12.38
2023-01-15T00:35:27.013Z,12.41
2023-01-15T00:36:26.787Z,12.48
2023-01-15T00:37:26.797Z,12.63
2023-01-15T00:38:26.769Z,12.87
2023-01-15T00:39:26.767Z,12.56
2023-01-15T00:40:26.751Z,12.74
2023-01-15T00:41:26.756Z,12.70
2023-01-15T00:42:26.730Z,12.66
2023-01-15T00:43:26.715Z,12.59
2023-01-15T00:44:27.416Z,12.49
2023-01-15T00:45:26.693Z,12.69
2023-01-15T00:46:26.718Z,12.88
2023-01-15T00:47:26.683Z,12.85
2023-01-15T00:48:26.649Z,12.92
2023-01-15T00:49:26.640Z,12.84
2023-01-15T00:50:26.628Z,12.82
2023-01-15T00:51:26.615Z,12.82
2023-01-15T00:52:26.585Z,12.66
2023-01-15T00:53:26.674Z,12.52
2023-01-15T00:54:34.153Z,12.26
2023-01-15T00:55:26.580Z,12.21
2023-01-15T00:56:26.548Z,12.11
2023-01-15T00:57:26.541Z,12.02
2023-01-15T00:58:26.556Z,12.09
2023-01-15T00:59:26.549Z,11.83
2023-01-15T01:00:26.503Z,12.01
2023-01-15T01:01:26.618Z,12.33
2023-01-15T01:02:26.564Z,12.12
2023-01-15T01:03:26.471Z,12.05
2023-01-15T01:04:26.572Z,11.90
2023-01-15T01:05:26.520Z,11.80
2023-01-15T01:06:26.447Z,12.05
2023-01-15T01:07:26.445Z,12.05
2023-01-15T01:08:26.411Z,11.90
2023-01-15T01:09:26.415Z,11.83
2023-01-15T01:10:26.442Z,12.08
2023-01-15T01:11:26.384Z,11.82
2023-01-15T01:12:26.393Z,11.68
2023-01-15T01:13:26.362Z,11.68
2023-01-15T01:14:26.345Z,11.85
2023-01-15T01:15:26.331Z,11.99
2023-01-15T01:16:26.376Z,11.94
2023-01-15T01:17:26.311Z,12.04
2023-01-15T01:18:26.294Z,11.90
2023-01-15T01:19:26.290Z,11.97
2023-01-15T01:20:26.267Z,12.12
2023-01-15T01:21:26.292Z,12.09
2023-01-15T01:22:26.250Z,11.83
2023-01-15T01:23:26.247Z,11.93
2023-01-15T01:24:26.220Z,11.89
2023-01-15T01:25:26.214Z,11.90
2023-01-15T01:26:26.208Z,11.86
2023-01-15T01:27:26.213Z,11.87
2023-01-15T01:28:26.166Z,11.85
2023-01-15T01:29:26.188Z,11.82
2023-01-15T01:30:26.172Z,11.75
2023-01-15T01:31:26.154Z,11.75
2023-01-15T01:32:26.131Z,11.72
2023-01-15T01:33:26.275Z,11.78
2023-01-15T01:34:26.107Z,11.83
2023-01-15T01:35:26.099Z,11.77
2023-01-15T01:36:26.077Z,11.68
2023-01-15T01:37:26.088Z,11.57
2023-01-15T01:38:26.060Z,11.61
2023-01-15T01:39:26.095Z,11.70
2023-01-15T01:40:26.036Z,11.61
2023-01-15T01:41:26.078Z,11.78
2023-01-15T01:42:26.012Z,11.53
2023-01-15T01:43:26.037Z,11.52
2023-01-15T01:44:26.008Z,11.46
2023-01-15T01:45:26.078Z,11.19
2023-01-15T01:46:25.967Z,11.16
2023-01-15T01:47:25.958Z,11.19
2023-01-15T01:48:25.940Z,10.88
2023-01-15T01:49:25.939Z,10.73
2023-01-15T01:50:25.940Z,10.53
2023-01-15T01:51:25.926Z,10.43
2023-01-15T01:52:25.897Z,10.36
2023-01-15T01:53:25.894Z,10.62
2023-01-15T01:54:25.880Z,10.40
2023-01-15T01:55:25.873Z,10.34
2023-01-15T01:56:25.850Z,10.51
2023-01-15T01:57:25.916Z,10.37
2023-01-15T01:58:25.831Z,10.37
2023-01-15T01:59:25.838Z,10.52
2023-01-15T02:00:25.819Z,10.25
2023-01-15T02:01:25.884Z,10.34
2023-01-15T02:02:25.864Z,10.39
2023-01-15T02:03:25.811Z,10.39
2023-01-15T02:04:25.783Z,10.24
2023-01-15T02:05:25.774Z,10.26
2023-01-15T02:06:25.730Z,10.15
2023-01-15T02:07:25.733Z,10.37
2023-01-15T02:08:25.760Z,10.22
2023-01-15T02:09:25.710Z,10.17
2023-01-15T02:10:25.712Z,9.99
2023-01-15T02:11:25.692Z,9.82
2023-01-15T02:12:25.700Z,10.01
2023-01-15T02:13:25.653Z,10.01
2023-01-15T02:14:25.691Z,9.86
2023-01-15T02:15:25.655Z,9.76
2023-01-15T02:16:25.678Z,10.00
2023-01-15T02:17:25.676Z,10.03
2023-01-15T02:18:25.593Z,9.76
2023-01-15T02:19:25.608Z,9.64
2023-01-15T02:20:25.655Z,9.60
2023-01-15T02:21:25.578Z,9.79
2023-01-15T02:22:25.571Z,9.85
2023-01-15T02:23:25.570Z,9.61
2023-01-15T02:24:25.588Z,9.61
2023-01-15T02:25:25.522Z,9.52
2023-01-15T02:26:25.580Z,9.50
2023-01-15T02:27:25.504Z,9.45
2023-01-15T02:28:25.497Z,9.46
2023-01-15T02:29:25.491Z,9.56
2023-01-15T02:30:25.475Z,9.39
2023-01-15T02:31:25.491Z,9.38
2023-01-15T02:32:25.471Z,9.23
2023-01-15T02:33:25.427Z,9.23
2023-01-15T02:34:25.452Z,9.32
2023-01-15T02:35:25.417Z,9.28
2023-01-15T02:36:25.398Z,9.49
2023-01-15T02:37:25.415Z,9.39
2023-01-15T02:38:25.386Z,9.45
2023-01-15T02:39:25.362Z,9.45
2023-01-15T02:40:25.355Z,9.45
2023-01-15T02:41:25.344Z,9.56
2023-01-15T02:42:25.347Z,9.49
2023-01-15T02:43:25.335Z,9.73
2023-01-15T02:44:25.309Z,9.34
2023-01-15T02:45:25.397Z,9.24
2023-01-15T02:46:25.285Z,9.05
2023-01-15T02:47:25.325Z,9.04
2023-01-15T02:48:25.271Z,9.21
2023-01-15T02:49:25.375Z,9.16
2023-01-15T02:50:25.234Z,9.25
2023-01-15T02:51:25.233Z,9.15
2023-01-15T02:52:25.232Z,8.90
2023-01-15T02:53:25.222Z,8.90
2023-01-15T02:54:25.208Z,8.83
2023-01-15T02:55:25.211Z,8.72
2023-01-15T02:56:25.204Z,8.99
2023-01-15T02:57:25.146Z,8.99
2023-01-15T02:58:25.136Z,8.65
2023-01-15T02:59:25.127Z,8.42
2023-01-15T03:00:25.177Z,8.42
2023-01-15T03:01:25.194Z,8.51
2023-01-15T03:02:25.137Z,8.45
2023-01-15T03:03:25.103Z,8.42
2023-01-15T03:04:25.076Z,8.35
2023-01-15T03:05:25.066Z,8.50
2023-01-15T03:06:25.081Z,8.29
2023-01-15T03:07:25.053Z,8.21
2023-01-15T03:08:25.074Z,8.25
2023-01-15T03:09:25.016Z,8.50
2023-01-15T03:10:24.997Z,8.42
2023-01-15T03:11:25.008Z,8.45
2023-01-15T03:12:25.022Z,8.25
2023-01-15T03:13:25.007Z,8.35
2023-01-15T03:14:24.956Z,8.37
2023-01-15T03:15:24.941Z,8.62
2023-01-15T03:16:24.941Z,8.35
2023-01-15T03:17:24.930Z,8.39
2023-01-15T03:18:24.938Z,8.47
2023-01-15T03:19:24.919Z,8.37
2023-01-15T03:20:24.877Z,8.33
2023-01-15T03:21:24.870Z,8.39
2023-01-15T03:22:24.877Z,8.10
2023-01-15T03:23:24.920Z,8.11
2023-01-15T03:24:24.831Z,8.25
2023-01-15T03:25:24.892Z,8.03
2023-01-15T03:26:24.813Z,8.07
2023-01-15T03:27:24.817Z,7.96
2023-01-15T03:28:24.811Z,7.93
2023-01-15T03:29:24.818Z,7.94
2023-01-15T03:30:24.805Z,8.04
2023-01-15T03:31:24.763Z,7.92
2023-01-15T03:32:24.761Z,7.74
2023-01-15T03:33:24.732Z,7.74
2023-01-15T03:34:24.741Z,7.89
2023-01-15T03:35:24.704Z,7.81
2023-01-15T03:36:24.707Z,8.02
2023-01-15T03:37:24.687Z,7.87
2023-01-15T03:38:24.670Z,7.87
2023-01-15T03:39:24.662Z,7.87
2023-01-15T03:40:24.680Z,7.94
2023-01-15T03:41:24.643Z,7.82
2023-01-15T03:42:24.621Z,7.66
2023-01-15T03:43:24.611Z,7.53
2023-01-15T03:44:24.622Z,7.62
2023-01-15T03:45:24.702Z,7.60
2023-01-15T03:46:24.615Z,7.71
2023-01-15T03:47:24.570Z,7.62
2023-01-15T03:48:24.571Z,7.38
2023-01-15T03:49:24.559Z,7.44
2023-01-15T03:50:24.545Z,7.37
2023-01-15T03:51:24.527Z,7.42
2023-01-15T03:52:24.542Z,7.58
2023-01-15T03:53:24.504Z,7.62
2023-01-15T03:54:24.491Z,7.60
2023-01-15T03:55:24.493Z,7.45
2023-01-15T03:56:24.492Z,7.52
2023-01-15T03:57:24.492Z,7.55
2023-01-15T03:58:24.477Z,7.42
2023-01-15T03:59:24.462Z,7.67
2023-01-15T04:00:24.423Z,7.52
2023-01-15T04:01:24.499Z,7.52
2023-01-15T04:02:24.424Z,7.50
2023-01-15T04:03:24.436Z,7.63
2023-01-15T04:04:24.375Z,7.52
2023-01-15T04:05:24.402Z,7.66
2023-01-15T04:06:24.374Z,7.60
2023-01-15T04:07:24.376Z,7.71
2023-01-15T04:08:24.335Z,7.67
2023-01-15T04:09:24.404Z,7.58
2023-01-15T04:10:24.314Z,7.58
2023-01-15T04:11:24.295Z,7.49
2023-01-15T04:12:24.285Z,7.53
2023-01-15T04:13:24.308Z,7.56
2023-01-15T04:14:24.256Z,7.69
2023-01-15T04:15:24.304Z,7.50
2023-01-15T04:16:24.273Z,7.47
2023-01-15T04:17:24.237Z,7.60
2023-01-15T04:18:24.237Z,7.75
2023-01-15T04:19:24.226Z,7.40
2023-01-15T04:20:24.217Z,7.44
2023-01-15T04:21:24.205Z,7.38
2023-01-15T04:22:24.165Z,7.32
2023-01-15T04:23:24.165Z,7.50
2023-01-15T04:24:24.159Z,7.78
2023-01-15T04:25:24.150Z,7.58
2023-01-15T04:26:24.157Z,7.62
2023-01-15T04:27:24.133Z,7.60
2023-01-15T04:28:24.110Z,7.45
2023-01-15T04:29:24.109Z,7.50
2023-01-15T04:30:24.081Z,7.55
2023-01-15T04:31:24.123Z,7.40
2023-01-15T04:32:24.061Z,7.74
2023-01-15T04:33:24.047Z,7.45
2023-01-15T04:34:24.041Z,7.69
2023-01-15T04:35:24.029Z,7.32
2023-01-15T04:36:24.031Z,7.37
2023-01-15T04:37:24.019Z,7.58
2023-01-15T04:38:23.987Z,7.35
2023-01-15T04:39:23.985Z,7.58
2023-01-15T04:40:23.966Z,7.55
2023-01-15T04:41:23.962Z,7.37
2023-01-15T04:42:23.978Z,7.29
2023-01-15T04:43:23.948Z,7.44
2023-01-15T04:44:23.910Z,7.20
2023-01-15T04:45:23.908Z,7.22
2023-01-15T04:46:23.906Z,7.23
2023-01-15T04:47:23.892Z,7.29
2023-01-15T04:48:23.901Z,7.17
2023-01-15T04:49:23.863Z,7.17
2023-01-15T04:50:23.850Z,7.15
2023-01-15T04:51:23.856Z,7.22
2023-01-15T04:52:23.852Z,7.15
2023-01-15T04:53:23.809Z,7.20
2023-01-15T04:54:23.819Z,7.13
2023-01-15T04:55:23.790Z,7.35
2023-01-15T04:56:23.801Z,7.31
2023-01-15T04:57:23.769Z,7.22
2023-01-15T04:58:23.769Z,7.23
2023-01-15T04:59:23.776Z,7.04
2023-01-15T05:00:23.731Z,7.09
2023-01-15T05:01:23.816Z,7.15
2023-01-15T05:02:23.801Z,7.19
2023-01-15T05:03:23.722Z,7.23
2023-01-15T05:04:23.691Z,7.15
2023-01-15T05:05:23.750Z,7.15
2023-01-15T05:06:23.681Z,7.15
2023-01-15T05:07:23.658Z,7.23
2023-01-15T05:08:23.647Z,7.37
2023-01-15T05:09:23.656Z,7.29
2023-01-15T05:10:23.621Z,7.01
2023-01-15T05:11:23.631Z,7.16
2023-01-15T05:12:23.625Z,7.17
2023-01-15T05:13:23.647Z,7.19
2023-01-15T05:14:23.653Z,7.29
2023-01-15T05:15:23.571Z,7.27
2023-01-15T05:16:23.605Z,7.38
2023-01-15T05:17:23.542Z,7.29
2023-01-15T05:18:23.532Z,7.22
2023-01-15T05:19:23.540Z,7.13
2023-01-15T05:20:23.512Z,7.29
2023-01-15T05:21:23.549Z,7.09
2023-01-15T05:22:23.514Z,7.19
2023-01-15T05:23:23.472Z,7.05
2023-01-15T05:24:23.463Z,7.26
2023-01-15T05:25:23.456Z,7.23
2023-01-15T05:26:23.455Z,7.15
2023-01-15T05:27:23.463Z,7.20
2023-01-15T05:28:23.429Z,7.07
2023-01-15T05:29:23.422Z,7.34
2023-01-15T05:30:23.395Z,7.32
2023-01-15T05:31:23.434Z,7.22
2023-01-15T05:32:23.364Z,7.22
2023-01-15T05:33:23.405Z,7.15
2023-01-15T05:34:23.341Z,7.22
2023-01-15T05:35:23.340Z,7.09
2023-01-15T05:36:23.344Z,7.20
2023-01-15T05:37:23.326Z,7.31
2023-01-15T05:38:23.307Z,7.34
2023-01-15T05:39:23.315Z,7.29
2023-01-15T05:40:23.301Z,7.27
2023-01-15T05:41:23.256Z,7.17
2023-01-15T05:42:23.246Z,7.26
2023-01-15T05:43:23.239Z,7.37
2023-01-15T05:44:23.248Z,7.27
2023-01-15T05:45:23.243Z,7.12
2023-01-15T05:46:23.253Z,6.99
2023-01-15T05:47:23.220Z,7.09
2023-01-15T05:48:23.183Z,7.09
2023-01-15T05:49:23.195Z,7.16
2023-01-15T05:50:23.179Z,7.22
2023-01-15T05:51:23.181Z,7.12
2023-01-15T05:52:23.157Z,7.05
2023-01-15T05:53:23.152Z,7.15
2023-01-15T05:54:23.129Z,7.29
2023-01-15T05:55:23.137Z,7.26
2023-01-15T05:56:23.111Z,7.15
2023-01-15T05:57:23.138Z,7.29
2023-01-15T05:58:23.077Z,7.24
2023-01-15T05:59:23.077Z,7.16
2023-01-15T06:00:23.053Z,7.04
2023-01-15T06:01:23.120Z,7.02
2023-01-15T06:02:23.143Z,7.24
2023-01-15T06:03:23.100Z,7.31
2023-01-15T06:04:23.027Z,7.15
2023-01-15T06:05:22.997Z,7.17
2023-01-15T06:06:22.979Z,7.13
2023-01-15T06:07:22.978Z,7.15
2023-01-15T06:08:22.999Z,7.19
2023-01-15T06:09:23.085Z,7.31
2023-01-15T06:10:22.950Z,7.16
2023-01-15T06:11:22.970Z,7.23
2023-01-15T06:12:22.931Z,7.22
2023-01-15T06:13:22.929Z,7.23
2023-01-15T06:14:22.927Z,7.31
2023-01-15T06:15:22.880Z,7.15
2023-01-15T06:16:22.936Z,7.27
2023-01-15T06:17:23.017Z,7.42
2023-01-15T06:18:22.861Z,7.16
2023-01-15T06:19:22.844Z,6.98
2023-01-15T06:20:22.893Z,7.05
2023-01-15T06:21:22.830Z,7.22
2023-01-15T06:22:22.812Z,7.04
2023-01-15T06:23:22.800Z,7.23
2023-01-15T06:24:22.781Z,7.09
2023-01-15T06:25:22.843Z,7.19
2023-01-15T06:26:22.758Z,6.99
2023-01-15T06:27:22.744Z,6.90
2023-01-15T06:28:22.766Z,6.84
2023-01-15T06:29:22.763Z,6.72
2023-01-15T06:30:22.820Z,6.95
2023-01-15T06:31:22.791Z,6.84
2023-01-15T06:32:22.682Z,6.99
2023-01-15T06:33:22.681Z,6.71
2023-01-15T06:34:22.662Z,6.89
2023-01-15T06:35:22.661Z,7.12
2023-01-15T06:36:22.661Z,7.34
2023-01-15T06:37:22.656Z,7.08
2023-01-15T06:38:22.624Z,7.12
2023-01-15T06:39:22.603Z,6.77
2023-01-15T06:40:22.622Z,6.79
2023-01-15T06:41:22.583Z,6.94
2023-01-15T06:42:22.611Z,6.99
2023-01-15T06:43:22.583Z,7.04
2023-01-15T06:44:22.578Z,6.98
2023-01-15T06:45:22.546Z,7.04
2023-01-15T06:46:22.550Z,7.17
2023-01-15T06:47:23.287Z,7.29
2023-01-15T06:48:22.551Z,7.44
2023-01-15T06:49:22.500Z,7.16
2023-01-15T06:50:22.484Z,7.13
2023-01-15T06:51:22.482Z,6.76
2023-01-15T06:52:22.469Z,6.69
2023-01-15T06:53:22.452Z,6.98
2023-01-15T06:54:22.455Z,6.61
2023-01-15T06:55:22.415Z,6.86
2023-01-15T06:56:22.432Z,6.86
2023-01-15T06:57:22.442Z,6.89
2023-01-15T06:58:22.391Z,6.80
2023-01-15T06:59:22.414Z,6.68
2023-01-15T07:00:22.373Z,6.80
2023-01-15T07:01:22.481Z,6.76
2023-01-15T07:02:22.357Z,6.72
2023-01-15T07:03:22.334Z,6.97
2023-01-15T07:04:22.322Z,6.81
2023-01-15T07:05:22.335Z,6.89
2023-01-15T07:06:22.304Z,6.98
2023-01-15T07:07:22.327Z,7.19
2023-01-15T07:08:22.276Z,6.87
2023-01-15T07:09:22.272Z,6.91
2023-01-15T07:10:22.288Z,6.86
2023-01-15T07:11:22.260Z,6.65
2023-01-15T07:12:22.230Z,6.69
2023-01-15T07:13:22.226Z,6.72
2023-01-15T07:14:22.206Z,6.65
2023-01-15T07:15:22.211Z,6.95
2023-01-15T07:16:22.229Z,6.94
2023-01-15T07:17:22.176Z,6.58
2023-01-15T07:18:22.171Z,6.81
2023-01-15T07:19:22.163Z,6.83
2023-01-15T07:20:22.127Z,6.86
2023-01-15T07:21:22.158Z,7.04
2023-01-15T07:22:22.126Z,7.15
2023-01-15T07:23:22.117Z,7.27
2023-01-15T07:24:22.098Z,7.01
2023-01-15T07:25:22.090Z,6.76
2023-01-15T07:26:22.091Z,6.83
2023-01-15T07:27:22.108Z,6.76
2023-01-15T07:28:22.859Z,6.65
2023-01-15T07:29:22.055Z,7.02
2023-01-15T07:30:22.049Z,6.89
2023-01-15T07:31:22.138Z,6.73
2023-01-15T07:32:22.031Z,6.66
2023-01-15T07:33:22.085Z,6.91
2023-01-15T07:34:22.004Z,7.04
2023-01-15T07:35:21.985Z,6.98
2023-01-15T07:36:21.958Z,6.84
2023-01-15T07:37:21.950Z,6.71
2023-01-15T07:38:21.932Z,6.65
2023-01-15T07:39:21.955Z,6.76
2023-01-15T07:40:21.900Z,7.15
2023-01-15T07:41:21.899Z,7.04
2023-01-15T07:42:21.901Z,7.27
2023-01-15T07:43:21.880Z,7.32
2023-01-15T07:44:21.900Z,7.44
2023-01-15T07:45:22.031Z,7.62
2023-01-15T07:46:21.823Z,7.62
2023-01-15T07:47:21.821Z,7.53
2023-01-15T07:48:21.791Z,7.62
2023-01-15T07:49:21.812Z,7.59
2023-01-15T07:50:21.801Z,7.35
2023-01-15T07:51:21.768Z,7.47
2023-01-15T07:52:21.759Z,7.59
2023-01-15T07:53:21.759Z,7.60
2023-01-15T07:54:21.730Z,7.22
2023-01-15T07:55:21.718Z,7.26
2023-01-15T07:56:21.743Z,7.16
2023-01-15T07:57:21.700Z,7.17
2023-01-15T07:58:21.693Z,7.32
2023-01-15T07:59:21.663Z,7.35
2023-01-15T08:00:21.659Z,7.40
2023-01-15T08:01:21.771Z,7.40
2023-01-15T08:02:21.649Z,7.47
2023-01-15T08:03:21.635Z,7.55
2023-01-15T08:04:21.618Z,7.77
2023-01-15T08:05:21.655Z,7.85
2023-01-15T08:06:21.582Z,7.94
2023-01-15T08:07:21.628Z,8.08
2023-01-15T08:08:21.564Z,8.12
2023-01-15T08:09:21.552Z,8.22
2023-01-15T08:10:21.579Z,8.35
2023-01-15T08:11:21.544Z,8.37
2023-01-15T08:12:21.521Z,8.29
2023-01-15T08:13:21.541Z,8.28
2023-01-15T08:14:21.502Z,8.32
2023-01-15T08:15:21.484Z,8.33
2023-01-15T08:16:21.503Z,8.25
2023-01-15T08:17:21.473Z,8.18
2023-01-15T08:18:21.442Z,8.21
2023-01-15T08:19:21.466Z,8.20
2023-01-15T08:20:21.424Z,8.04
2023-01-15T08:21:21.423Z,8.10
2023-01-15T08:22:21.455Z,8.20
2023-01-15T08:23:21.401Z,8.21
2023-01-15T08:24:21.423Z,8.21
2023-01-15T08:25:21.367Z,8.26
2023-01-15T08:26:21.376Z,8.30
2023-01-15T08:27:21.381Z,8.33
2023-01-15T08:28:21.332Z,8.21
2023-01-15T08:29:21.325Z,8.14
2023-01-15T08:30:21.363Z,8.18
2023-01-15T08:31:21.322Z,8.22
2023-01-15T08:32:21.306Z,8.20
2023-01-15T08:33:21.283Z,8.25
2023-01-15T08:34:21.281Z,7.99
2023-01-15T08:35:21.271Z,8.14
2023-01-15T08:36:21.283Z,8.15
2023-01-15T08:37:22.803Z,8.33
2023-01-15T08:38:21.235Z,8.22
2023-01-15T08:39:21.205Z,8.32
2023-01-15T08:40:21.187Z,8.45
2023-01-15T08:41:21.198Z,8.35
2023-01-15T08:42:21.235Z,8.39
2023-01-15T08:43:21.179Z,8.39
2023-01-15T08:44:21.155Z,8.44
2023-01-15T08:45:21.135Z,8.45
2023-01-15T08:46:21.127Z,8.36
2023-01-15T08:47:21.114Z,8.39
2023-01-15T08:48:21.123Z,8.47
2023-01-15T08:49:21.094Z,8.55
2023-01-15T08:50:21.083Z,8.66
2023-01-15T08:51:21.056Z,8.63
2023-01-15T08:52:21.067Z,8.60
2023-01-15T08:53:21.211Z,8.48
2023-01-15T08:54:21.026Z,8.50
2023-01-15T08:55:21.026Z,8.37
2023-01-15T08:56:21.005Z,7.90
2023-01-15T08:57:21.011Z,7.66
2023-01-15T08:58:21.019Z,7.60
2023-01-15T08:59:21.009Z,7.90
2023-01-15T09:00:20.999Z,7.74
2023-01-15T09:01:21.024Z,7.84
2023-01-15T09:02:20.945Z,7.62
2023-01-15T09:03:20.941Z,7.49
2023-01-15T09:04:21.009Z,7.74
2023-01-15T09:05:20.956Z,7.78
2023-01-15T09:06:20.911Z,7.79
2023-01-15T09:07:20.946Z,7.81
2023-01-15T09:08:20.904Z,7.78
2023-01-15T09:09:20.859Z,7.75
2023-01-15T09:10:20.870Z,7.84
2023-01-15T09:11:20.900Z,7.84
2023-01-15T09:12:20.829Z,7.72
2023-01-15T09:13:20.829Z,7.84
2023-01-15T09:14:56.059Z,8.10
2023-01-15T09:15:21.807Z,7.89
2023-01-15T09:16:20.921Z,7.84
2023-01-15T09:17:20.766Z,8.00
2023-01-15T09:18:20.785Z,8.12
2023-01-15T09:19:20.768Z,8.03
2023-01-15T09:20:20.750Z,8.12
2023-01-15T09:21:20.744Z,8.22
2023-01-15T09:22:20.757Z,8.02
2023-01-15T09:23:20.707Z,7.66
2023-01-15T09:24:20.689Z,7.79
2023-01-15T09:25:20.690Z,8.08
2023-01-15T09:26:20.675Z,8.14
2023-01-15T09:27:20.696Z,8.35
2023-01-15T09:28:20.659Z,7.97
2023-01-15T09:29:20.642Z,8.00
2023-01-15T09:30:20.653Z,7.74
2023-01-15T09:31:20.612Z,7.85
2023-01-15T09:32:20.611Z,7.67
2023-01-15T09:33:20.653Z,7.72
2023-01-15T09:34:20.594Z,7.55
2023-01-15T09:35:20.572Z,7.45
2023-01-15T09:36:20.551Z,7.53
2023-01-15T09:37:20.548Z,7.77
2023-01-15T09:38:20.531Z,7.97
2023-01-15T09:39:20.542Z,7.99
2023-01-15T09:40:20.548Z,7.85
2023-01-15T09:41:20.511Z,8.17
2023-01-15T09:42:20.502Z,7.97
2023-01-15T09:43:20.479Z,8.03
2023-01-15T09:44:20.512Z,8.03
2023-01-15T09:45:20.496Z,8.08
2023-01-15T09:46:20.518Z,8.12
2023-01-15T09:47:20.433Z,8.10
2023-01-15T09:48:20.447Z,8.03
2023-01-15T09:49:20.403Z,8.15
2023-01-15T09:50:20.491Z,8.28
2023-01-15T09:51:20.411Z,7.97
2023-01-15T09:52:20.361Z,8.02
2023-01-15T09:53:20.353Z,8.29
2023-01-15T09:54:20.361Z,8.21
2023-01-15T09:55:20.349Z,7.96
2023-01-15T09:56:20.355Z,7.99
2023-01-15T09:57:20.329Z,7.82
2023-01-15T09:58:20.293Z,7.67
2023-01-15T09:59:20.504Z,7.93
2023-01-15T10:00:20.372Z,7.75
2023-01-15T10:01:20.294Z,7.75
2023-01-15T10:02:20.274Z,7.87
2023-01-15T10:03:20.587Z,8.08
2023-01-15T10:04:20.967Z,7.94
2023-01-15T10:05:20.223Z,8.00
2023-01-15T10:06:20.213Z,7.96
2023-01-15T10:07:20.400Z,8.20
2023-01-15T10:08:20.192Z,8.28
2023-01-15T10:09:20.186Z,8.28
2023-01-15T10:10:20.560Z,8.50
2023-01-15T10:11:20.319Z,8.58
2023-01-15T10:12:20.333Z,8.21
2023-01-15T10:13:20.186Z,8.22
2023-01-15T10:14:20.485Z,8.42
2023-01-15T10:15:20.255Z,8.35
2023-01-15T10:16:21.016Z,8.21
2023-01-15T10:17:20.874Z,8.00
2023-01-15T10:18:20.676Z,8.02
2023-01-15T10:19:20.624Z,7.94
2023-01-15T10:20:20.189Z,8.22
2023-01-15T10:21:20.148Z,8.25
2023-01-15T10:22:20.066Z,8.10
2023-01-15T10:23:20.018Z,8.40
2023-01-15T10:24:20.351Z,8.26
2023-01-15T10:25:20.118Z,7.99
2023-01-15T10:26:20.675Z,8.25
2023-01-15T10:27:20.183Z,8.42
2023-01-15T10:28:19.975Z,8.35
2023-01-15T10:29:19.939Z,8.22
2023-01-15T10:30:19.966Z,8.29
2023-01-15T10:31:19.975Z,8.36
2023-01-15T10:32:19.906Z,8.48
2023-01-15T10:33:19.895Z,8.36
2023-01-15T10:34:19.899Z,8.22
2023-01-15T10:35:19.879Z,8.08
2023-01-15T10:36:19.896Z,8.18
2023-01-15T10:37:20.559Z,8.60
2023-01-15T10:38:19.917Z,8.37
2023-01-15T10:39:21.304Z,8.29
2023-01-15T10:40:19.979Z,8.10
2023-01-15T10:41:19.837Z,7.93
2023-01-15T10:42:20.160Z,8.33
2023-01-15T10:43:20.269Z,8.21
2023-01-15T10:44:19.808Z,8.14
2023-01-15T10:45:19.879Z,8.17
2023-01-15T10:46:19.970Z,8.28
2023-01-15T10:47:21.118Z,8.15
2023-01-15T10:48:19.972Z,8.28
2023-01-15T10:49:20.162Z,8.10
2023-01-15T10:50:21.608Z,8.26
2023-01-15T10:51:19.909Z,8.11
2023-01-15T10:52:19.810Z,8.17
2023-01-15T10:53:19.911Z,8.02
2023-01-15T10:54:19.667Z,8.03
2023-01-15T10:55:19.904Z,8.08
2023-01-15T10:56:19.936Z,8.02
2023-01-15T10:57:19.631Z,8.37
2023-01-15T10:58:20.084Z,8.02
2023-01-15T10:59:20.232Z,8.11
2023-01-15T11:00:19.631Z,8.12
2023-01-15T11:01:19.855Z,8.25
2023-01-15T11:02:19.636Z,8.02
2023-01-15T11:03:19.570Z,7.89
2023-01-15T11:04:19.667Z,8.04
2023-01-15T11:05:19.547Z,8.22
2023-01-15T11:06:19.695Z,8.29
2023-01-15T11:07:19.633Z,8.42
2023-01-15T11:09:05.967Z,8.12
2023-01-15T11:09:20.546Z,8.33
2023-01-15T11:10:19.492Z,8.12
2023-01-15T11:11:19.533Z,7.90
2023-01-15T11:12:19.452Z,8.08
2023-01-15T11:13:19.711Z,8.33
2023-01-15T11:14:20.053Z,8.47
2023-01-15T11:15:19.623Z,8.42
2023-01-15T11:16:19.723Z,8.47
2023-01-15T11:17:19.488Z,8.48
2023-01-15T11:18:19.512Z,8.37
2023-01-15T11:19:19.374Z,8.57
2023-01-15T11:20:19.384Z,8.72
2023-01-15T11:21:19.608Z,8.60
2023-01-15T11:22:19.496Z,8.73
2023-01-15T11:23:19.353Z,8.60
2023-01-15T11:24:19.575Z,8.97
2023-01-15T11:25:19.335Z,9.06
2023-01-15T11:26:19.542Z,8.72
2023-01-15T11:27:19.278Z,8.54
2023-01-15T11:28:21.299Z,8.44
2023-01-15T11:29:19.263Z,8.73
2023-01-15T11:30:19.248Z,8.91
2023-01-15T11:31:19.367Z,8.87
2023-01-15T11:32:19.275Z,8.63
2023-01-15T11:33:19.639Z,8.54
2023-01-15T11:34:21.594Z,8.14
2023-01-15T11:35:19.356Z,8.37
2023-01-15T11:36:19.635Z,8.45
2023-01-15T11:37:19.850Z,8.76
2023-01-15T11:38:20.154Z,8.66
2023-01-15T11:39:19.170Z,8.87
2023-01-15T11:40:19.197Z,8.75
2023-01-15T11:41:19.264Z,8.66
2023-01-15T11:42:19.143Z,8.96
2023-01-15T11:43:19.458Z,8.96
2023-01-15T11:44:19.476Z,8.87
2023-01-15T11:45:19.196Z,8.63
2023-01-15T11:46:19.296Z,8.71
2023-01-15T11:47:19.486Z,8.83
2023-01-15T11:48:19.097Z,8.68
2023-01-15T11:49:19.167Z,8.81
2023-01-15T11:50:19.034Z,8.68
2023-01-15T11:51:19.119Z,8.83
2023-01-15T11:52:19.007Z,8.63
2023-01-15T11:53:19.056Z,8.57
2023-01-15T11:54:19.057Z,8.71
2023-01-15T11:55:19.287Z,8.75
2023-01-15T11:56:18.959Z,9.20
2023-01-15T11:57:19.187Z,8.68
2023-01-15T11:58:19.307Z,8.54
2023-01-15T11:59:19.109Z,8.54
2023-01-15T12:00:19.221Z,8.57
2023-01-15T12:01:19.047Z,8.65
2023-01-15T12:02:19.121Z,8.57
2023-01-15T12:03:19.589Z,8.48
2023-01-15T12:04:19.022Z,8.60
2023-01-15T12:05:20.132Z,8.84
2023-01-15T12:06:19.000Z,8.83
2023-01-15T12:07:20.313Z,8.79
2023-01-15T12:08:18.813Z,8.81
2023-01-15T12:09:18.945Z,8.97
2023-01-15T12:10:18.813Z,9.21
2023-01-15T12:11:26.837Z,8.65
2023-01-15T12:12:19.768Z,8.83
2023-01-15T12:13:18.743Z,8.63
2023-01-15T12:14:18.911Z,8.48
2023-01-15T12:15:18.738Z,8.55
2023-01-15T12:16:18.765Z,8.69
2023-01-15T12:17:18.733Z,8.88
2023-01-15T12:18:19.478Z,8.87
2023-01-15T12:19:19.345Z,8.40
2023-01-15T12:20:18.692Z,8.75
2023-01-15T12:21:18.676Z,8.88
2023-01-15T12:22:19.129Z,8.97
2023-01-15T12:23:19.783Z,8.94
2023-01-15T12:24:18.671Z,8.91
2023-01-15T12:25:19.003Z,8.93
2023-01-15T12:26:18.605Z,9.24
2023-01-15T12:27:18.610Z,9.13
2023-01-15T12:28:18.618Z,8.76
2023-01-15T12:29:19.635Z,8.65
2023-01-15T12:30:18.613Z,8.99
2023-01-15T12:31:19.567Z,9.02
2023-01-15T12:32:18.572Z,8.78
2023-01-15T12:33:19.087Z,8.84
2023-01-15T12:34:18.846Z,9.18
2023-01-15T12:35:19.736Z,9.18
2023-01-15T12:36:18.784Z,8.78
2023-01-15T12:37:18.991Z,8.96
2023-01-15T12:38:18.502Z,8.78
2023-01-15T12:39:18.595Z,8.91
2023-01-15T12:40:18.760Z,8.91
2023-01-15T12:41:18.886Z,9.20
2023-01-15T12:42:18.474Z,9.16
2023-01-15T12:43:18.493Z,9.20
2023-01-15T12:44:18.491Z,8.87
2023-01-15T12:45:18.428Z,8.97
2023-01-15T12:46:18.539Z,8.99
2023-01-15T12:47:19.017Z,9.24
2023-01-15T12:48:18.566Z,9.02
2023-01-15T12:49:18.373Z,9.06
2023-01-15T12:50:18.359Z,8.94
2023-01-15T12:51:18.680Z,9.02
2023-01-15T12:52:18.967Z,9.35
2023-01-15T12:53:18.383Z,9.23
2023-01-15T12:54:18.646Z,9.21
2023-01-15T12:55:18.320Z,9.25
2023-01-15T12:56:18.506Z,8.86
2023-01-15T12:57:18.400Z,8.91
2023-01-15T12:58:18.463Z,9.25
2023-01-15T12:59:18.606Z,9.06
2023-01-15T13:00:18.427Z,8.99
2023-01-15T13:01:19.451Z,9.28
2023-01-15T13:02:18.271Z,9.30
2023-01-15T13:03:18.498Z,9.25
2023-01-15T13:04:18.339Z,9.28
2023-01-15T13:05:18.213Z,9.45
2023-01-15T13:06:18.409Z,9.43
2023-01-15T13:07:18.175Z,9.42
2023-01-15T13:08:18.132Z,9.53
2023-01-15T13:09:18.127Z,9.71
2023-01-15T13:10:18.120Z,9.70
2023-01-15T13:11:18.099Z,9.31
2023-01-15T13:12:18.325Z,9.34
2023-01-15T13:13:18.121Z,9.45
2023-01-15T13:14:18.093Z,9.52